createdAt,value
2022-09-26T00:01:43.292Z,20.20
2022-09-26T00:04:22.332Z,20.20
2022-09-26T00:06:54.629Z,20.20
2022-09-26T00:09:25.156Z,20.20
2022-09-26T00:11:53.247Z,20.20
2022-09-26T00:14:25.303Z,20.20
2022-09-26T00:16:53.604Z,20.20
2022-09-26T00:19:22.281Z,20.20
2022-09-26T00:21:50.149Z,20.20
2022-09-26T00:24:19.646Z,20.20
2022-09-26T00:26:47.508Z,20.20
2022-09-26T00:29:16.025Z,20.20
2022-09-26T00:31:47.463Z,20.10
2022-09-26T00:34:18.410Z,20.10
2022-09-26T00:36:46.371Z,20.10
2022-09-26T00:39:17.730Z,20.10
2022-09-26T00:41:47.005Z,20.10
2022-09-26T00:44:42.976Z,20.00
2022-09-26T00:47:27.419Z,20.00
2022-09-26T00:50:02.640Z,20.10
2022-09-26T00:52:37.023Z,20.00
2022-09-26T00:55:11.446Z,20.00
2022-09-26T00:57:46.707Z,20.00
2022-09-26T01:00:15.880Z,20.00
2022-09-26T01:02:47.755Z,20.00
2022-09-26T01:05:21.163Z,20.00
2022-09-26T01:07:50.809Z,20.00
2022-09-26T01:10:19.531Z,20.00
2022-09-26T01:12:48.720Z,20.00
2022-09-26T01:15:16.780Z,20.00
2022-09-26T01:17:46.671Z,20.00
2022-09-26T01:20:36.895Z,19.90
2022-09-26T01:23:51.404Z,19.90
2022-09-26T01:26:50.188Z,19.90
2022-09-26T01:30:02.688Z,19.90
2022-09-26T01:33:09.959Z,19.90
2022-09-26T01:36:11.878Z,19.80
2022-09-26T01:38:56.382Z,19.80
2022-09-26T01:41:39.791Z,19.80
2022-09-26T01:44:27.338Z,19.80
2022-09-26T01:47:01.775Z,19.80
2022-09-26T01:49:38.543Z,19.80
2022-09-26T01:52:16.736Z,19.80
2022-09-26T01:54:50.784Z,19.80
2022-09-26T01:57:25.380Z,19.80
2022-09-26T02:00:00.570Z,19.80
2022-09-26T02:02:34.997Z,19.80
2022-09-26T02:05:13.047Z,19.80
2022-09-26T02:07:48.275Z,19.80
2022-09-26T02:14:28.605Z,19.70
2022-09-26T02:17:02.959Z,19.70
2022-09-26T02:19:39.083Z,19.70
2022-09-26T02:22:08.427Z,19.70
2022-09-26T02:24:36.679Z,19.80
2022-09-26T02:27:06.798Z,19.70
2022-09-26T02:29:35.467Z,19.70
2022-09-26T02:32:12.992Z,19.70
2022-09-26T02:34:43.033Z,19.70
2022-09-26T02:37:13.502Z,19.70
2022-09-26T02:39:43.092Z,19.70
2022-09-26T02:42:28.279Z,19.70
2022-09-26T02:45:25.436Z,19.70
2022-09-26T02:48:27.405Z,19.60
2022-09-26T02:51:14.296Z,19.60
2022-09-26T02:54:05.125Z,19.60
2022-09-26T02:56:58.929Z,19.60
2022-09-26T02:59:41.934Z,19.60
2022-09-26T03:02:18.270Z,19.60
2022-09-26T03:05:07.033Z,19.60
2022-09-26T03:07:42.428Z,19.60
2022-09-26T03:10:15.320Z,19.60
2022-09-26T03:12:45.997Z,19.60
2022-09-26T03:15:15.807Z,19.60
2022-09-26T03:17:49.363Z,19.60
2022-09-26T03:20:22.657Z,19.60
2022-09-26T03:22:53.754Z,19.60
2022-09-26T03:25:28.315Z,19.60
2022-09-26T03:28:05.643Z,19.60
2022-09-26T03:30:34.359Z,19.60
2022-09-26T03:33:21.377Z,19.60
2022-09-26T03:35:50.068Z,19.60
2022-09-26T03:38:18.117Z,19.60
2022-09-26T03:40:55.033Z,19.60
2022-09-26T03:43:43.662Z,19.60
2022-09-26T03:46:13.196Z,19.60
2022-09-26T03:48:41.197Z,19.60
2022-09-26T03:51:13.102Z,19.60
2022-09-26T03:53:43.933Z,19.60
2022-09-26T03:56:19.722Z,19.50
2022-09-26T03:58:49.850Z,19.50
2022-09-26T04:01:22.088Z,19.50
2022-09-26T04:03:51.605Z,19.50
2022-09-26T04:06:21.183Z,19.50
2022-09-26T04:08:53.382Z,19.50
2022-09-26T04:11:25.217Z,19.50
2022-09-26T04:13:54.304Z,19.50
2022-09-26T04:16:27.375Z,19.50
2022-09-26T04:19:04.582Z,19.50
2022-09-26T04:21:33.147Z,19.50
2022-09-26T04:24:01.193Z,19.50
2022-09-26T04:26:30.542Z,19.50
2022-09-26T04:28:59.531Z,19.50
2022-09-26T04:31:51.213Z,19.50
2022-09-26T04:34:27.286Z,19.40
2022-09-26T04:36:57.190Z,19.40
2022-09-26T04:39:26.245Z,19.40
2022-09-26T04:41:55.672Z,19.40
2022-09-26T04:44:23.647Z,19.40
2022-09-26T04:46:51.643Z,19.40
2022-09-26T04:49:23.649Z,19.40
2022-09-26T04:51:52.037Z,19.40
2022-09-26T04:54:20.451Z,19.40
2022-09-26T04:56:48.349Z,19.40
2022-09-26T04:59:17.573Z,19.40
2022-09-26T05:01:54.073Z,19.40
2022-09-26T05:04:33.328Z,19.40
2022-09-26T05:07:01.375Z,19.40
2022-09-26T05:09:35.717Z,19.40
2022-09-26T05:12:07.849Z,19.40
2022-09-26T05:14:39.186Z,19.40
2022-09-26T05:17:07.091Z,19.40
2022-09-26T05:19:35.201Z,19.40
2022-09-26T05:22:23.352Z,19.40
2022-09-26T05:25:08.693Z,19.30
2022-09-26T05:27:38.153Z,19.30
2022-09-26T05:30:09.028Z,19.30
2022-09-26T05:32:36.873Z,19.30
2022-09-26T05:35:06.622Z,19.30
2022-09-26T05:37:39.761Z,19.30
2022-09-26T05:40:26.391Z,19.30
2022-09-26T05:43:01.801Z,19.30
2022-09-26T05:45:31.759Z,19.30
2022-09-26T05:48:03.020Z,19.30
2022-09-26T05:50:31.303Z,19.30
2022-09-26T05:53:00.122Z,19.30
2022-09-26T05:55:31.062Z,19.30
2022-09-26T05:58:18.735Z,19.30
2022-09-26T06:01:26.132Z,19.20
2022-09-26T06:04:05.396Z,19.20
2022-09-26T06:06:44.207Z,19.30
2022-09-26T06:09:16.587Z,19.20
2022-09-26T06:11:53.643Z,19.20
2022-09-26T06:14:26.590Z,19.20
2022-09-26T06:16:56.374Z,19.20
2022-09-26T06:19:24.835Z,19.20
2022-09-26T06:21:53.555Z,19.30
2022-09-26T06:24:22.775Z,19.30
2022-09-26T06:26:54.046Z,19.30
2022-09-26T06:29:21.921Z,19.30
2022-09-26T06:31:50.465Z,19.30
2022-09-26T06:34:48.432Z,19.20
2022-09-26T06:37:43.043Z,19.20
2022-09-26T06:40:12.393Z,19.20
2022-09-26T06:42:41.572Z,19.20
2022-09-26T06:45:26.539Z,19.20
2022-09-26T06:48:13.189Z,19.20
2022-09-26T06:51:00.569Z,19.20
2022-09-26T06:53:31.773Z,19.20
2022-09-26T06:56:00.710Z,19.30
2022-09-26T06:58:29.459Z,19.30
2022-09-26T07:01:02.018Z,19.30
2022-09-26T07:03:49.124Z,19.30
2022-09-26T07:06:44.835Z,19.30
2022-09-26T07:09:14.133Z,19.30
2022-09-26T07:12:14.688Z,19.30
2022-09-26T07:14:44.316Z,19.30
2022-09-26T07:17:21.217Z,19.30
2022-09-26T07:20:10.876Z,19.30
2022-09-26T07:22:58.804Z,19.30
2022-09-26T07:25:26.875Z,19.30
2022-09-26T07:27:55.251Z,19.40
2022-09-26T07:30:32.666Z,19.40
2022-09-26T07:33:07.714Z,19.40
2022-09-26T07:35:45.104Z,19.40
2022-09-26T07:38:14.770Z,19.40
2022-09-26T07:40:43.798Z,19.50
2022-09-26T07:43:20.637Z,19.50
2022-09-26T07:46:12.037Z,19.50
2022-09-26T07:49:00.603Z,19.50
2022-09-26T07:51:48.263Z,19.50
2022-09-26T07:54:21.467Z,19.50
2022-09-26T07:57:15.562Z,19.50
2022-09-26T07:59:54.447Z,19.50
2022-09-26T08:02:45.241Z,19.60
2022-09-26T08:05:19.783Z,19.60
2022-09-26T08:07:49.577Z,19.70
2022-09-26T08:10:38.942Z,19.80
2022-09-26T08:13:27.710Z,19.90
2022-09-26T08:16:20.586Z,20.00
2022-09-26T08:18:48.606Z,20.20
2022-09-26T08:21:16.609Z,20.40
2022-09-26T08:23:45.246Z,20.50
2022-09-26T08:26:44.786Z,20.70
2022-09-26T08:29:30.925Z,20.90
2022-09-26T08:32:02.148Z,21.00
2022-09-26T08:34:32.114Z,21.20
2022-09-26T08:37:27.771Z,21.20
2022-09-26T08:40:14.926Z,21.30
2022-09-26T08:43:37.467Z,21.30
2022-09-26T08:46:49.307Z,21.30
2022-09-26T08:49:43.973Z,21.30
2022-09-26T08:52:28.956Z,21.30
2022-09-26T08:55:00.361Z,21.30
2022-09-26T08:57:39.154Z,21.30
2022-09-26T09:00:20.001Z,21.20
2022-09-26T09:03:06.972Z,21.20
2022-09-26T09:05:39.150Z,21.20
2022-09-26T09:08:16.310Z,21.20
2022-09-26T09:11:11.369Z,21.20
2022-09-26T09:14:02.539Z,21.20
2022-09-26T09:17:10.727Z,21.10
2022-09-26T09:20:17.004Z,21.10
2022-09-26T09:23:33.797Z,21.10
2022-09-26T09:29:30.590Z,21.10
2022-09-26T09:32:47.981Z,21.00
2022-09-26T09:35:43.300Z,21.00
2022-09-26T09:38:20.429Z,21.00
2022-09-26T09:41:06.775Z,21.00
2022-09-26T09:43:42.930Z,21.00
2022-09-26T09:46:19.256Z,21.00
2022-09-26T09:48:51.368Z,21.00
2022-09-26T09:51:39.430Z,21.00
2022-09-26T09:54:29.132Z,21.00
2022-09-26T09:57:33.093Z,21.00
2022-09-26T10:00:12.492Z,21.00
2022-09-26T10:02:52.651Z,21.00
2022-09-26T10:05:37.447Z,21.00
2022-09-26T10:08:13.122Z,21.00
2022-09-26T10:11:16.931Z,21.00
2022-09-26T10:14:17.342Z,21.00
2022-09-26T10:17:20.966Z,20.90
2022-09-26T10:20:05.017Z,21.00
2022-09-26T10:22:45.483Z,21.00
2022-09-26T10:25:26.645Z,21.00
2022-09-26T10:27:59.279Z,21.00
2022-09-26T10:30:33.606Z,21.00
2022-09-26T10:33:06.409Z,21.00
2022-09-26T10:35:45.972Z,21.00
2022-09-26T10:38:24.537Z,21.00
2022-09-26T10:41:01.273Z,21.00
2022-09-26T10:43:38.005Z,21.00
2022-09-26T10:46:24.690Z,21.00
2022-09-26T10:49:39.890Z,21.00
2022-09-26T10:52:31.044Z,21.00
2022-09-26T10:55:07.088Z,21.00
2022-09-26T10:57:45.346Z,21.00
2022-09-26T11:00:22.160Z,21.00
2022-09-26T11:02:53.224Z,21.00
2022-09-26T11:05:51.290Z,21.10
2022-09-26T11:08:29.814Z,21.00
2022-09-26T11:11:27.446Z,21.00
2022-09-26T11:14:05.236Z,21.00
2022-09-26T11:16:53.986Z,21.00
2022-09-26T11:19:37.323Z,21.00
2022-09-26T11:22:15.250Z,21.00
2022-09-26T11:24:55.935Z,21.00
2022-09-26T11:27:35.222Z,21.00
2022-09-26T11:30:12.509Z,21.00
2022-09-26T11:32:51.551Z,21.00
2022-09-26T11:35:51.652Z,21.00
2022-09-26T11:38:39.255Z,21.00
2022-09-26T11:41:36.693Z,21.00
2022-09-26T11:44:43.495Z,21.00
2022-09-26T11:47:55.443Z,21.00
2022-09-26T11:50:50.008Z,21.00
2022-09-26T11:54:04.137Z,21.00
2022-09-26T11:56:55.102Z,21.00
2022-09-26T12:00:06.206Z,21.00
2022-09-26T12:03:11.461Z,21.00
2022-09-26T12:05:53.445Z,21.00
2022-09-26T12:08:38.302Z,21.00
2022-09-26T12:11:19.602Z,21.10
2022-09-26T12:13:57.430Z,21.10
2022-09-26T12:16:37.285Z,21.10
2022-09-26T12:19:20.953Z,21.10
2022-09-26T12:22:19.832Z,21.10
2022-09-26T12:24:59.804Z,21.10
2022-09-26T12:27:42.341Z,21.20
2022-09-26T12:30:15.226Z,21.20
2022-09-26T12:33:10.354Z,21.10
2022-09-26T12:35:56.898Z,21.20
2022-09-26T12:39:01.357Z,21.20
2022-09-26T12:42:00.861Z,21.20
2022-09-26T12:45:00.672Z,21.20
2022-09-26T12:47:59.625Z,21.20
2022-09-26T12:50:39.888Z,21.20
2022-09-26T12:53:46.814Z,21.20
2022-09-26T12:56:23.346Z,21.20
2022-09-26T12:59:12.742Z,21.20
2022-09-26T13:02:03.885Z,21.20
2022-09-26T13:05:16.890Z,21.20
2022-09-26T13:08:03.505Z,21.30
2022-09-26T13:10:47.261Z,21.30
2022-09-26T13:14:07.944Z,21.20
2022-09-26T13:16:56.075Z,21.30
2022-09-26T13:19:34.519Z,21.30
2022-09-26T13:22:13.449Z,21.30
2022-09-26T13:24:53.032Z,21.30
2022-09-26T13:27:28.596Z,21.30
2022-09-26T13:30:04.967Z,21.30
2022-09-26T13:32:45.013Z,21.40
2022-09-26T13:35:20.853Z,21.40
2022-09-26T13:38:09.173Z,21.40
2022-09-26T13:40:47.684Z,21.40
2022-09-26T13:43:30.489Z,21.40
2022-09-26T13:46:10.593Z,21.40
2022-09-26T13:48:51.845Z,21.40
2022-09-26T13:51:26.885Z,21.40
2022-09-26T13:54:10.504Z,21.40
2022-09-26T13:56:49.458Z,21.40
2022-09-26T13:59:34.460Z,21.40
2022-09-26T14:02:24.768Z,21.40
2022-09-26T14:04:54.626Z,21.50
2022-09-26T14:08:04.554Z,21.40
2022-09-26T14:10:38.913Z,21.40
2022-09-26T14:13:21.789Z,21.40
2022-09-26T14:16:04.911Z,21.40
2022-09-26T14:19:09.231Z,21.40
2022-09-26T14:21:46.350Z,21.40
2022-09-26T14:24:38.065Z,21.40
2022-09-26T14:27:44.191Z,21.40
2022-09-26T14:30:29.563Z,21.40
2022-09-26T14:33:03.472Z,21.40
2022-09-26T14:35:35.143Z,21.40
2022-09-26T14:38:10.075Z,21.50
2022-09-26T14:40:38.903Z,21.50
2022-09-26T14:43:14.539Z,21.50
2022-09-26T14:45:49.988Z,21.50
2022-09-26T14:48:33.459Z,21.50
2022-09-26T14:51:05.938Z,21.50
2022-09-26T14:53:41.977Z,21.50
2022-09-26T14:56:16.413Z,21.50
2022-09-26T14:58:51.364Z,21.50
2022-09-26T15:01:29.353Z,21.50
2022-09-26T15:04:03.499Z,21.50
2022-09-26T15:06:46.827Z,21.50
2022-09-26T15:09:23.538Z,21.40
2022-09-26T15:11:59.241Z,21.50
2022-09-26T15:14:38.463Z,21.40
2022-09-26T15:17:17.522Z,21.40
2022-09-26T15:19:53.053Z,21.40
2022-09-26T15:22:25.614Z,21.40
2022-09-26T15:24:54.906Z,21.50
2022-09-26T15:27:27.309Z,21.40
2022-09-26T15:30:03.776Z,21.50
2022-09-26T15:32:34.726Z,21.50
2022-09-26T15:35:04.388Z,21.40
2022-09-26T15:37:36.077Z,21.40
2022-09-26T15:40:17.878Z,21.40
2022-09-26T15:43:02.425Z,21.40
2022-09-26T15:45:33.957Z,21.40
2022-09-26T15:48:06.050Z,21.40
2022-09-26T15:50:43.804Z,21.40
2022-09-26T15:53:26.338Z,21.40
2022-09-26T15:56:01.261Z,21.40
2022-09-26T15:58:39.582Z,21.40
2022-09-26T16:01:08.844Z,21.40
2022-09-26T16:03:47.435Z,21.40
2022-09-26T16:06:35.353Z,21.30
2022-09-26T16:09:10.155Z,21.30
2022-09-26T16:11:47.497Z,21.30
2022-09-26T16:14:26.862Z,21.30
2022-09-26T16:17:02.152Z,21.30
2022-09-26T16:19:36.189Z,21.30
2022-09-26T16:22:41.079Z,21.20
2022-09-26T16:25:54.716Z,21.20
2022-09-26T16:28:43.308Z,21.20
2022-09-26T16:31:34.369Z,21.20
2022-09-26T16:34:03.186Z,21.20
2022-09-26T16:36:35.270Z,21.20
2022-09-26T16:39:07.157Z,21.20
2022-09-26T16:44:35.506Z,21.20
2022-09-26T16:47:08.901Z,21.20
2022-09-26T16:49:46.754Z,21.10
2022-09-26T16:52:31.014Z,21.10
2022-09-26T16:55:01.229Z,21.20
2022-09-26T16:57:33.195Z,21.10
2022-09-26T17:00:24.419Z,21.10
2022-09-26T17:02:52.348Z,21.10
2022-09-26T17:05:22.489Z,21.10
2022-09-26T17:07:51.841Z,21.10
2022-09-26T17:10:23.941Z,21.10
2022-09-26T17:12:53.210Z,21.10
2022-09-26T17:15:27.846Z,21.00
2022-09-26T17:17:57.019Z,21.10
2022-09-26T17:20:25.729Z,21.00
2022-09-26T17:22:55.635Z,21.00
2022-09-26T17:25:25.474Z,21.00
2022-09-26T17:27:59.606Z,21.00
2022-09-26T17:30:27.765Z,21.00
2022-09-26T17:32:56.052Z,21.00
2022-09-26T17:35:27.641Z,20.90
2022-09-26T17:37:57.528Z,20.90
2022-09-26T17:40:27.985Z,20.90
2022-09-26T17:42:59.746Z,20.90
2022-09-26T17:45:31.102Z,20.80
2022-09-26T17:48:03.725Z,20.80
2022-09-26T17:50:33.771Z,20.80
2022-09-26T17:53:04.155Z,20.80
2022-09-26T17:55:33.463Z,20.80
2022-09-26T17:58:02.314Z,20.80
2022-09-26T18:00:40.335Z,20.70
2022-09-26T18:03:19.034Z,20.70
2022-09-26T18:05:47.622Z,20.70
2022-09-26T18:08:22.499Z,20.70
2022-09-26T18:10:56.901Z,20.60
2022-09-26T18:13:31.525Z,20.60
2022-09-26T18:16:00.051Z,20.60
2022-09-26T18:18:31.877Z,20.60
2022-09-26T18:21:03.901Z,20.60
2022-09-26T18:23:42.396Z,20.50
2022-09-26T18:26:17.874Z,20.50
2022-09-26T18:28:45.853Z,20.50
2022-09-26T18:31:13.989Z,20.50
2022-09-26T18:33:41.959Z,20.50
2022-09-26T18:36:12.730Z,20.40
2022-09-26T18:38:41.934Z,20.40
2022-09-26T18:41:12.106Z,20.40
2022-09-26T18:43:42.428Z,20.40
2022-09-26T18:46:13.728Z,20.40
2022-09-26T18:48:41.882Z,20.40
2022-09-26T18:51:11.658Z,20.30
2022-09-26T18:53:41.326Z,20.30
2022-09-26T18:56:28.557Z,20.30
2022-09-26T18:58:57.543Z,20.30
2022-09-26T19:01:30.963Z,20.20
2022-09-26T19:04:02.672Z,20.20
2022-09-26T19:06:35.453Z,20.20
2022-09-26T19:09:08.257Z,20.20
2022-09-26T19:11:36.217Z,20.20
2022-09-26T19:14:14.226Z,20.10
2022-09-26T19:16:42.645Z,20.10
2022-09-26T19:19:10.748Z,20.10
2022-09-26T19:21:41.419Z,20.10
2022-09-26T19:24:20.444Z,20.00
2022-09-26T19:26:52.430Z,20.00
2022-09-26T19:29:33.687Z,20.00
2022-09-26T19:32:02.798Z,20.00
2022-09-26T19:34:32.916Z,20.00
2022-09-26T19:37:03.030Z,20.00
2022-09-26T19:39:32.730Z,20.00
2022-09-26T19:42:01.554Z,20.00
2022-09-26T19:44:29.552Z,19.90
2022-09-26T19:46:59.739Z,19.90
2022-09-26T19:49:31.180Z,19.90
2022-09-26T19:52:01.009Z,19.90
2022-09-26T19:54:29.910Z,19.90
2022-09-26T19:56:59.438Z,19.90
2022-09-26T19:59:27.918Z,19.90
2022-09-26T20:01:56.323Z,19.90
2022-09-26T20:04:24.288Z,19.90
2022-09-26T20:06:53.002Z,19.80
2022-09-26T20:09:21.274Z,19.80
2022-09-26T20:11:49.548Z,19.80
2022-09-26T20:14:24.599Z,19.80
2022-09-26T20:16:59.178Z,19.80
2022-09-26T20:19:33.342Z,19.70
2022-09-26T20:22:04.090Z,19.70
2022-09-26T20:24:34.313Z,19.70
2022-09-26T20:27:06.925Z,19.70
2022-09-26T20:29:56.942Z,19.70
2022-09-26T20:32:24.923Z,19.70
2022-09-26T20:34:53.009Z,19.70
2022-09-26T20:37:23.693Z,19.70
2022-09-26T20:39:52.548Z,19.70
2022-09-26T20:42:22.018Z,19.70
2022-09-26T20:44:51.361Z,19.70
2022-09-26T20:47:21.304Z,19.70
2022-09-26T20:49:54.774Z,19.70
2022-09-26T20:52:26.639Z,19.60
2022-09-26T20:54:55.863Z,19.70
2022-09-26T20:57:24.398Z,19.70
2022-09-26T20:59:53.615Z,19.60
2022-09-26T21:02:28.886Z,19.60
2022-09-26T21:04:58.293Z,19.60
2022-09-26T21:07:26.251Z,19.60
2022-09-26T21:09:54.143Z,19.60
2022-09-26T21:12:22.136Z,19.60
2022-09-26T21:14:50.087Z,19.60
2022-09-26T21:17:23.920Z,19.60
2022-09-26T21:19:52.173Z,19.60
2022-09-26T21:22:43.593Z,19.60
2022-09-26T21:25:17.355Z,19.60
2022-09-26T21:27:46.514Z,19.60
2022-09-26T21:30:15.872Z,19.60
2022-09-26T21:32:51.148Z,19.60
2022-09-26T21:35:22.511Z,19.60
2022-09-26T21:37:53.900Z,19.60
2022-09-26T21:40:26.854Z,19.60
2022-09-26T21:43:00.148Z,19.50
2022-09-26T21:45:28.025Z,19.60
2022-09-26T21:47:58.713Z,19.50
2022-09-26T21:50:28.958Z,19.60
2022-09-26T21:53:03.904Z,19.50
2022-09-26T21:55:38.671Z,19.50
2022-09-26T21:58:13.552Z,19.50
2022-09-26T22:00:41.784Z,19.50
2022-09-26T22:03:11.102Z,19.50
2022-09-26T22:05:38.989Z,19.50
2022-09-26T22:08:06.951Z,19.60
2022-09-26T22:10:34.927Z,19.50
2022-09-26T22:13:02.846Z,19.50
2022-09-26T22:15:30.816Z,19.50
2022-09-26T22:17:58.694Z,19.50
2022-09-26T22:20:27.869Z,19.50
2022-09-26T22:22:55.789Z,19.50
2022-09-26T22:25:23.633Z,19.50
2022-09-26T22:27:51.551Z,19.50
2022-09-26T22:30:19.557Z,19.50
2022-09-26T22:32:47.452Z,19.50
2022-09-26T22:35:15.684Z,19.50
2022-09-26T22:37:45.263Z,19.50
2022-09-26T22:40:13.172Z,19.50
2022-09-26T22:42:41.106Z,19.50
2022-09-26T22:45:10.702Z,19.50
2022-09-26T22:47:38.550Z,19.50
2022-09-26T22:50:07.345Z,19.50
2022-09-26T22:52:35.178Z,19.50
2022-09-26T22:55:05.340Z,19.50
2022-09-26T22:57:33.234Z,19.50
2022-09-26T23:00:01.825Z,19.50
2022-09-26T23:02:29.859Z,19.50
2022-09-26T23:04:57.738Z,19.50
2022-09-26T23:07:25.598Z,19.50
2022-09-26T23:09:53.640Z,19.50
2022-09-26T23:12:22.817Z,19.50
2022-09-26T23:14:51.149Z,19.50
2022-09-26T23:17:19.115Z,19.50
2022-09-26T23:19:47.048Z,19.50
2022-09-26T23:22:15.348Z,19.50
2022-09-26T23:24:43.279Z,19.50
2022-09-26T23:27:11.210Z,19.50
2022-09-26T23:29:41.279Z,19.50
2022-09-26T23:32:09.300Z,19.50
2022-09-26T23:34:37.135Z,19.50
2022-09-26T23:37:05.001Z,19.50
2022-09-26T23:39:32.825Z,19.50
2022-09-26T23:42:00.766Z,19.50
2022-09-26T23:44:28.659Z,19.50
2022-09-26T23:46:59.928Z,19.50
2022-09-26T23:49:27.809Z,19.50
2022-09-26T23:51:55.718Z,19.50
2022-09-26T23:54:23.789Z,19.50
2022-09-26T23:56:51.658Z,19.50
2022-09-26T23:59:19.510Z,19.50
